createdAt,value
2017-09-22T00:00:38.637Z,99.99
2017-09-22T00:01:38.955Z,99.99
2017-09-22T00:02:38.948Z,99.99
2017-09-22T00:03:38.607Z,99.99
2017-09-22T00:04:38.600Z,99.99
2017-09-22T00:05:38.588Z,99.99
2017-09-22T00:06:38.580Z,99.99
2017-09-22T00:07:38.587Z,99.99
2017-09-22T00:08:38.891Z,99.99
2017-09-22T00:09:38.875Z,99.99
2017-09-22T00:10:38.541Z,99.99
2017-09-22T00:11:38.666Z,99.99
2017-09-22T00:12:38.542Z,99.99
2017-09-22T00:13:38.508Z,99.99
2017-09-22T00:14:38.496Z,99.99
2017-09-22T00:15:38.813Z,99.99
2017-09-22T00:16:38.487Z,99.99
2017-09-22T00:17:38.468Z,99.99
2017-09-22T00:18:38.487Z,99.99
2017-09-22T00:19:38.448Z,99.99
2017-09-22T00:20:38.442Z,99.99
2017-09-22T00:21:38.426Z,99.99
2017-09-22T00:22:38.421Z,99.99
2017-09-22T00:23:38.509Z,99.99
2017-09-22T00:24:38.403Z,99.99
2017-09-22T00:25:38.404Z,99.99
2017-09-22T00:26:38.376Z,99.99
2017-09-22T00:27:38.707Z,99.99
2017-09-22T00:28:38.703Z,99.99
2017-09-22T00:29:38.344Z,99.99
2017-09-22T00:30:38.657Z,99.99
2017-09-22T00:31:38.341Z,99.99
2017-09-22T00:32:38.311Z,99.99
2017-09-22T00:33:38.299Z,99.99
2017-09-22T00:34:38.307Z,99.99
2017-09-22T00:35:38.279Z,99.99
2017-09-22T00:36:38.268Z,99.99
2017-09-22T00:37:38.258Z,99.99
2017-09-22T00:38:38.592Z,99.99
2017-09-22T00:39:38.239Z,99.99
2017-09-22T00:40:38.227Z,99.99
2017-09-22T00:41:38.214Z,99.99
2017-09-22T00:42:38.536Z,99.99
2017-09-22T00:43:38.199Z,99.99
2017-09-22T00:44:38.185Z,99.99
2017-09-22T00:45:38.181Z,99.99
2017-09-22T00:46:38.171Z,99.99
2017-09-22T00:47:38.483Z,99.99
2017-09-22T00:48:38.151Z,99.99
2017-09-22T00:49:38.133Z,99.99
2017-09-22T00:50:38.121Z,99.99
2017-09-22T00:51:38.114Z,99.99
2017-09-22T00:52:38.101Z,99.99
2017-09-22T00:53:38.109Z,99.99
2017-09-22T00:54:38.079Z,99.99
2017-09-22T00:55:38.397Z,99.99
2017-09-22T00:56:38.057Z,99.99
2017-09-22T00:57:38.047Z,99.99
2017-09-22T00:58:38.424Z,99.99
2017-09-22T00:59:38.027Z,99.99
2017-09-22T01:00:38.346Z,99.99
2017-09-22T01:01:38.025Z,99.99
2017-09-22T01:02:37.998Z,99.99
2017-09-22T01:03:37.995Z,99.99
2017-09-22T01:04:38.307Z,99.99
2017-09-22T01:05:37.985Z,99.99
2017-09-22T01:06:37.956Z,99.99
2017-09-22T01:07:37.947Z,99.99
2017-09-22T01:08:37.931Z,99.99
2017-09-22T01:09:37.923Z,99.99
2017-09-22T01:10:37.909Z,99.99
2017-09-22T01:11:38.226Z,99.99
2017-09-22T01:12:38.215Z,99.99
2017-09-22T01:13:38.216Z,99.99
2017-09-22T01:14:38.212Z,99.99
2017-09-22T01:15:37.858Z,99.99
2017-09-22T01:16:37.887Z,99.99
2017-09-22T01:17:38.065Z,99.99
2017-09-22T01:18:37.985Z,99.99
2017-09-22T01:19:37.908Z,99.99
2017-09-22T01:20:38.352Z,99.99
2017-09-22T01:21:38.145Z,99.99
2017-09-22T01:22:37.846Z,99.99
2017-09-22T01:23:37.877Z,99.99
2017-09-22T01:24:38.230Z,99.99
2017-09-22T01:25:37.908Z,99.99
2017-09-22T01:26:37.912Z,99.99
2017-09-22T01:27:37.848Z,99.99
2017-09-22T01:28:37.732Z,99.99
2017-09-22T01:29:37.822Z,99.99
2017-09-22T01:30:37.793Z,99.99
2017-09-22T01:31:37.790Z,99.99
2017-09-22T01:32:37.698Z,99.99
2017-09-22T01:33:37.666Z,99.99
2017-09-22T01:34:38.114Z,99.99
2017-09-22T01:35:37.718Z,99.99
2017-09-22T01:36:38.070Z,99.99
2017-09-22T01:37:38.030Z,99.99
2017-09-22T01:38:37.700Z,99.99
2017-09-22T01:39:37.953Z,99.99
2017-09-22T01:40:38.025Z,99.99
2017-09-22T01:41:38.047Z,99.99
2017-09-22T01:42:38.057Z,99.99
2017-09-22T01:43:38.178Z,99.99
2017-09-22T01:44:37.678Z,99.99
2017-09-22T01:45:37.973Z,99.99
2017-09-22T01:46:37.585Z,99.99
2017-09-22T01:47:37.659Z,99.99
2017-09-22T01:48:37.566Z,99.99
2017-09-22T01:49:37.527Z,99.99
2017-09-22T01:50:37.588Z,99.99
2017-09-22T01:51:37.467Z,99.99
2017-09-22T01:52:37.576Z,99.99
2017-09-22T01:53:37.649Z,99.99
2017-09-22T01:54:37.564Z,99.99
2017-09-22T01:55:37.602Z,99.99
2017-09-22T01:56:37.885Z,99.99
2017-09-22T01:57:37.466Z,99.99
2017-09-22T01:58:37.496Z,99.99
2017-09-22T01:59:37.584Z,99.99
2017-09-22T02:00:37.843Z,99.99
2017-09-22T02:01:37.502Z,99.99
2017-09-22T02:02:37.410Z,99.99
2017-09-22T02:03:37.410Z,99.99
2017-09-22T02:04:37.465Z,99.99
2017-09-22T02:05:37.437Z,99.99
2017-09-22T02:06:37.790Z,99.99
2017-09-22T02:07:37.426Z,99.99
2017-09-22T02:08:37.614Z,99.99
2017-09-22T02:09:37.402Z,99.99
2017-09-22T02:10:37.402Z,99.99
2017-09-22T02:11:37.394Z,99.99
2017-09-22T02:12:37.771Z,99.99
2017-09-22T02:13:37.761Z,99.99
2017-09-22T02:14:37.373Z,99.99
2017-09-22T02:15:37.316Z,99.99
2017-09-22T02:16:37.347Z,99.99
2017-09-22T02:17:37.331Z,99.99
2017-09-22T02:18:37.719Z,99.99
2017-09-22T02:19:37.742Z,99.99
2017-09-22T02:20:37.612Z,99.99
2017-09-22T02:21:37.653Z,99.99
2017-09-22T02:22:37.321Z,99.99
2017-09-22T02:23:37.243Z,99.99
2017-09-22T02:24:37.306Z,99.99
2017-09-22T02:25:37.635Z,99.99
2017-09-22T02:26:37.101Z,99.99
2017-09-22T02:27:37.109Z,99.99
2017-09-22T02:28:37.080Z,99.99
2017-09-22T02:29:37.398Z,99.99
2017-09-22T02:30:37.388Z,99.99
2017-09-22T02:31:37.048Z,99.99
2017-09-22T02:32:37.370Z,99.99
2017-09-22T02:33:37.035Z,99.99
2017-09-22T02:34:37.019Z,99.99
2017-09-22T02:35:37.009Z,99.99
2017-09-22T02:36:36.999Z,99.99
2017-09-22T02:37:37.054Z,99.99
2017-09-22T02:38:36.976Z,99.99
2017-09-22T02:39:37.303Z,99.99
2017-09-22T02:40:36.957Z,99.99
2017-09-22T02:41:37.275Z,99.99
2017-09-22T02:42:36.936Z,99.99
2017-09-22T02:43:36.934Z,99.99
2017-09-22T02:44:36.917Z,99.99
2017-09-22T02:45:37.255Z,99.99
2017-09-22T02:46:37.224Z,99.99
2017-09-22T02:47:43.151Z,99.99
2017-09-22T02:48:36.875Z,99.99
2017-09-22T02:49:36.866Z,99.99
2017-09-22T02:50:37.182Z,99.99
2017-09-22T02:51:36.845Z,99.99
2017-09-22T02:52:36.835Z,99.99
2017-09-22T02:53:36.825Z,99.99
2017-09-22T02:54:36.814Z,99.99
2017-09-22T02:55:36.802Z,99.99
2017-09-22T02:56:37.125Z,99.99
2017-09-22T02:57:36.784Z,99.99
2017-09-22T02:58:36.771Z,99.99
2017-09-22T02:59:37.087Z,99.99
2017-09-22T03:00:36.752Z,99.99
2017-09-22T03:01:36.740Z,99.99
2017-09-22T03:02:36.733Z,99.99
2017-09-22T03:03:37.046Z,99.99
2017-09-22T03:04:36.709Z,99.99
2017-09-22T03:05:36.715Z,99.99
2017-09-22T03:06:36.690Z,99.99
2017-09-22T03:07:36.684Z,99.99
2017-09-22T03:08:36.671Z,99.99
2017-09-22T03:09:36.713Z,99.99
2017-09-22T03:10:36.977Z,99.99
2017-09-22T03:11:36.966Z,99.99
2017-09-22T03:12:36.628Z,99.99
2017-09-22T03:13:36.619Z,99.99
2017-09-22T03:14:36.634Z,99.99
2017-09-22T03:15:36.597Z,99.99
2017-09-22T03:16:36.587Z,99.99
2017-09-22T03:17:36.583Z,99.99
2017-09-22T03:18:36.590Z,99.99
2017-09-22T03:19:36.567Z,99.99
2017-09-22T03:20:36.872Z,99.99
2017-09-22T03:21:36.538Z,99.99
2017-09-22T03:22:36.526Z,99.99
2017-09-22T03:23:36.519Z,99.99
2017-09-22T03:24:36.505Z,99.99
2017-09-22T03:25:36.496Z,99.99
2017-09-22T03:26:36.484Z,99.99
2017-09-22T03:27:36.478Z,99.99
2017-09-22T03:28:36.468Z,99.99
2017-09-22T03:29:36.454Z,99.99
2017-09-22T03:30:36.495Z,99.99
2017-09-22T03:31:36.435Z,99.99
2017-09-22T03:32:36.425Z,99.99
2017-09-22T03:33:36.413Z,99.99
2017-09-22T03:34:36.406Z,99.99
2017-09-22T03:35:36.400Z,99.99
2017-09-22T03:36:36.710Z,99.99
2017-09-22T03:37:36.375Z,99.99
2017-09-22T03:38:36.693Z,99.99
2017-09-22T03:39:36.354Z,99.99
2017-09-22T03:40:36.343Z,99.99
2017-09-22T03:41:36.336Z,99.99
2017-09-22T03:42:36.323Z,99.99
2017-09-22T03:43:36.640Z,99.99
2017-09-22T03:44:36.304Z,99.99
2017-09-22T03:45:36.311Z,99.99
2017-09-22T03:46:36.621Z,99.99
2017-09-22T03:47:36.275Z,99.99
2017-09-22T03:48:36.589Z,99.99
2017-09-22T03:49:36.580Z,99.99
2017-09-22T03:50:36.244Z,99.99
2017-09-22T03:51:36.232Z,99.99
2017-09-22T03:52:36.221Z,99.99
2017-09-22T03:53:36.538Z,99.99
2017-09-22T03:54:36.204Z,99.99
2017-09-22T03:55:36.193Z,99.99
2017-09-22T03:56:36.528Z,99.99
2017-09-22T03:57:36.173Z,99.99
2017-09-22T03:58:36.161Z,99.99
2017-09-22T03:59:36.499Z,99.99
2017-09-22T04:00:36.471Z,99.99
2017-09-22T04:01:36.138Z,99.99
2017-09-22T04:02:36.446Z,99.99
2017-09-22T04:03:36.110Z,99.99
2017-09-22T04:04:36.099Z,99.99
2017-09-22T04:05:36.088Z,99.99
2017-09-22T04:06:36.124Z,99.99
2017-09-22T04:07:36.067Z,99.99
2017-09-22T04:08:36.386Z,99.99
2017-09-22T04:09:36.048Z,99.99
2017-09-22T04:10:36.362Z,99.99
2017-09-22T04:11:36.027Z,99.99
2017-09-22T04:12:36.025Z,99.99
2017-09-22T04:13:36.008Z,99.99
2017-09-22T04:14:35.996Z,99.99
2017-09-22T04:15:35.986Z,99.99
2017-09-22T04:16:36.300Z,99.99
2017-09-22T04:17:35.966Z,99.99
2017-09-22T04:18:36.282Z,99.99
2017-09-22T04:19:35.942Z,99.99
2017-09-22T04:20:35.933Z,99.99
2017-09-22T04:21:36.251Z,99.99
2017-09-22T04:22:35.922Z,99.99
2017-09-22T04:23:36.229Z,99.99
2017-09-22T04:24:35.905Z,99.99
2017-09-22T04:25:35.880Z,99.99
2017-09-22T04:26:36.197Z,99.99
2017-09-22T04:27:35.861Z,99.99
2017-09-22T04:28:35.846Z,99.99
2017-09-22T04:29:35.839Z,99.99
2017-09-22T04:30:35.843Z,99.99
2017-09-22T04:31:35.818Z,99.99
2017-09-22T04:32:35.806Z,99.99
2017-09-22T04:33:35.799Z,99.99
2017-09-22T04:34:35.785Z,99.99
2017-09-22T04:35:35.793Z,99.99
2017-09-22T04:36:36.090Z,99.99
2017-09-22T04:37:36.103Z,99.99
2017-09-22T04:38:35.743Z,99.99
2017-09-22T04:39:35.748Z,99.99
2017-09-22T04:40:35.719Z,99.99
2017-09-22T04:41:35.710Z,99.99
2017-09-22T04:42:35.708Z,99.99
2017-09-22T04:43:35.687Z,99.99
2017-09-22T04:44:35.685Z,99.99
2017-09-22T04:45:35.674Z,99.99
2017-09-22T04:46:35.657Z,99.99
2017-09-22T04:47:35.644Z,99.99
2017-09-22T04:48:35.982Z,99.99
2017-09-22T04:49:35.620Z,99.99
2017-09-22T04:50:35.611Z,99.99
2017-09-22T04:51:35.601Z,99.99
2017-09-22T04:52:35.918Z,99.99
2017-09-22T04:53:35.906Z,99.99
2017-09-22T04:54:35.578Z,99.99
2017-09-22T04:55:35.582Z,99.99
2017-09-22T04:56:35.555Z,99.99
2017-09-22T04:57:35.561Z,99.99
2017-09-22T04:58:35.874Z,99.99
2017-09-22T04:59:35.850Z,99.99
2017-09-22T05:00:35.504Z,99.99
2017-09-22T05:01:35.493Z,99.99
2017-09-22T05:02:35.484Z,99.99
2017-09-22T05:03:35.476Z,99.99
2017-09-22T05:04:35.460Z,99.99
2017-09-22T05:05:35.783Z,99.99
2017-09-22T05:06:35.766Z,99.99
2017-09-22T05:07:35.427Z,99.99
2017-09-22T05:08:35.420Z,99.99
2017-09-22T05:09:35.738Z,99.99
2017-09-22T05:10:35.403Z,99.99
2017-09-22T05:11:35.385Z,99.99
2017-09-22T05:12:35.375Z,99.99
2017-09-22T05:13:35.367Z,99.99
2017-09-22T05:14:35.704Z,99.99
2017-09-22T05:15:35.342Z,99.99
2017-09-22T05:16:35.660Z,99.99
2017-09-22T05:17:35.325Z,99.99
2017-09-22T05:18:35.661Z,99.99
2017-09-22T05:19:35.329Z,99.99
2017-09-22T05:20:35.296Z,99.99
2017-09-22T05:21:35.278Z,99.99
2017-09-22T05:22:35.270Z,99.99
2017-09-22T05:23:35.589Z,99.99
2017-09-22T05:24:35.579Z,99.99
2017-09-22T05:25:35.237Z,99.99
2017-09-22T05:26:35.227Z,99.99
2017-09-22T05:27:44.000Z,99.99
2017-09-22T05:28:35.224Z,99.99
2017-09-22T05:29:35.535Z,99.99
2017-09-22T05:30:35.183Z,99.99
2017-09-22T05:31:35.501Z,99.99
2017-09-22T05:32:35.165Z,99.99
2017-09-22T05:33:35.153Z,99.99
2017-09-22T05:34:35.472Z,99.99
2017-09-22T05:35:35.132Z,99.99
2017-09-22T05:36:35.455Z,99.99
2017-09-22T05:37:35.120Z,99.99
2017-09-22T05:38:35.103Z,99.99
2017-09-22T05:39:35.416Z,99.99
2017-09-22T05:40:35.404Z,99.99
2017-09-22T05:41:35.070Z,99.99
2017-09-22T05:42:35.080Z,99.99
2017-09-22T05:43:35.048Z,99.99
2017-09-22T05:44:35.036Z,99.99
2017-09-22T05:45:35.356Z,99.99
2017-09-22T05:46:35.017Z,99.99
2017-09-22T05:47:35.336Z,99.99
2017-09-22T05:48:35.019Z,99.99
2017-09-22T05:49:35.012Z,99.99
2017-09-22T05:50:35.338Z,99.99
2017-09-22T05:51:34.963Z,99.99
2017-09-22T05:52:35.302Z,99.99
2017-09-22T05:53:34.944Z,99.99
2017-09-22T05:54:34.942Z,99.99
2017-09-22T05:55:35.251Z,99.99
2017-09-22T05:56:35.243Z,99.99
2017-09-22T05:57:34.904Z,99.99
2017-09-22T05:58:35.221Z,99.99
2017-09-22T05:59:34.882Z,99.99
2017-09-22T06:00:34.876Z,99.99
2017-09-22T06:01:34.867Z,99.99
2017-09-22T06:02:34.852Z,99.99
2017-09-22T06:03:34.842Z,99.99
2017-09-22T06:04:34.833Z,99.99
2017-09-22T06:05:35.153Z,99.99
2017-09-22T06:06:34.811Z,99.99
2017-09-22T06:07:35.137Z,99.99
2017-09-22T06:08:34.794Z,99.99
2017-09-22T06:09:34.781Z,99.99
2017-09-22T06:10:34.773Z,99.99
2017-09-22T06:11:34.768Z,99.99
2017-09-22T06:12:35.080Z,99.99
2017-09-22T06:13:34.743Z,99.99
2017-09-22T06:14:35.060Z,99.99
2017-09-22T06:15:34.722Z,99.99
2017-09-22T06:16:34.712Z,99.99
2017-09-22T06:17:34.703Z,99.99
2017-09-22T06:18:34.693Z,99.99
2017-09-22T06:19:34.683Z,99.99
2017-09-22T06:20:35.004Z,99.99
2017-09-22T06:21:34.666Z,99.99
2017-09-22T06:22:34.982Z,99.99
2017-09-22T06:23:34.654Z,99.99
2017-09-22T06:24:34.659Z,99.99
2017-09-22T06:25:34.625Z,99.99
2017-09-22T06:26:34.615Z,99.99
2017-09-22T06:27:34.935Z,99.99
2017-09-22T06:28:34.599Z,99.99
2017-09-22T06:29:34.913Z,99.99
2017-09-22T06:30:34.581Z,99.99
2017-09-22T06:31:34.590Z,99.99
2017-09-22T06:32:34.890Z,99.99
2017-09-22T06:33:34.560Z,99.99
2017-09-22T06:34:34.543Z,99.99
2017-09-22T06:35:34.859Z,99.99
2017-09-22T06:36:34.521Z,99.99
2017-09-22T06:37:34.514Z,99.99
2017-09-22T06:38:34.504Z,99.99
2017-09-22T06:39:34.495Z,99.99
2017-09-22T06:40:34.487Z,99.99
2017-09-22T06:41:34.476Z,99.99
2017-09-22T06:42:34.794Z,99.99
2017-09-22T06:43:34.786Z,99.99
2017-09-22T06:44:34.452Z,99.99
2017-09-22T06:45:34.790Z,99.99
2017-09-22T06:46:34.434Z,99.99
2017-09-22T06:47:34.424Z,99.99
2017-09-22T06:48:34.424Z,99.99
2017-09-22T06:49:34.428Z,99.99
2017-09-22T06:50:34.729Z,99.99
2017-09-22T06:51:34.719Z,99.99
2017-09-22T06:52:34.380Z,99.99
2017-09-22T06:53:34.371Z,99.99
2017-09-22T06:54:34.690Z,99.99
2017-09-22T06:55:34.356Z,99.99
2017-09-22T06:56:34.347Z,99.99
2017-09-22T06:57:34.339Z,99.99
2017-09-22T06:58:34.332Z,99.99
2017-09-22T06:59:34.652Z,99.99
2017-09-22T07:00:34.664Z,99.99
2017-09-22T07:01:34.632Z,99.99
2017-09-22T07:02:34.628Z,99.99
2017-09-22T07:03:34.309Z,99.99
2017-09-22T07:04:34.280Z,99.99
2017-09-22T07:05:34.598Z,99.99
2017-09-22T07:06:34.262Z,99.99
2017-09-22T07:07:34.253Z,99.99
2017-09-22T07:08:34.572Z,99.99
2017-09-22T07:09:34.565Z,99.99
2017-09-22T07:10:34.568Z,99.99
2017-09-22T07:11:34.226Z,99.99
2017-09-22T07:12:34.229Z,99.99
2017-09-22T07:13:34.533Z,99.99
2017-09-22T07:14:34.527Z,99.99
2017-09-22T07:15:34.515Z,99.99
2017-09-22T07:16:34.530Z,99.99
2017-09-22T07:17:34.173Z,99.99
2017-09-22T07:18:34.494Z,99.99
2017-09-22T07:19:34.157Z,99.99
2017-09-22T07:20:34.177Z,99.99
2017-09-22T07:21:34.143Z,99.99
2017-09-22T07:22:34.133Z,99.99
2017-09-22T07:23:34.126Z,99.99
2017-09-22T07:24:34.458Z,99.99
2017-09-22T07:25:34.110Z,99.99
2017-09-22T07:26:34.104Z,99.99
2017-09-22T07:27:34.114Z,99.99
2017-09-22T07:28:34.087Z,99.99
2017-09-22T07:29:34.084Z,99.99
2017-09-22T07:30:34.068Z,99.99
2017-09-22T07:31:34.061Z,99.99
2017-09-22T07:32:34.384Z,99.99
2017-09-22T07:33:34.046Z,99.99
2017-09-22T07:34:34.039Z,99.99
2017-09-22T07:35:34.050Z,99.99
2017-09-22T07:36:34.024Z,99.99
2017-09-22T07:37:34.019Z,99.99
2017-09-22T07:38:34.336Z,99.99
2017-09-22T07:39:34.343Z,99.99
2017-09-22T07:40:34.010Z,99.99
2017-09-22T07:41:33.982Z,99.99
2017-09-22T07:42:33.979Z,99.99
2017-09-22T07:43:34.314Z,99.99
2017-09-22T07:44:33.969Z,99.99
2017-09-22T07:45:33.954Z,99.99
2017-09-22T07:46:33.946Z,99.99
2017-09-22T07:47:34.268Z,99.99
2017-09-22T07:48:33.929Z,99.99
2017-09-22T07:49:33.924Z,99.99
2017-09-22T07:50:33.915Z,99.99
2017-09-22T07:51:34.234Z,99.99
2017-09-22T07:52:33.921Z,99.99
2017-09-22T07:53:33.896Z,99.99
2017-09-22T07:54:34.215Z,99.99
2017-09-22T07:55:33.875Z,99.99
2017-09-22T07:56:33.868Z,99.99
2017-09-22T07:57:34.214Z,99.99
2017-09-22T07:58:33.855Z,99.99
2017-09-22T07:59:34.173Z,99.99
2017-09-22T08:00:33.840Z,99.99
2017-09-22T08:01:34.160Z,99.99
2017-09-22T08:02:33.824Z,99.99
2017-09-22T08:03:34.144Z,99.99
2017-09-22T08:04:33.827Z,99.99
2017-09-22T08:05:34.139Z,99.99
2017-09-22T08:06:33.795Z,99.99
2017-09-22T08:07:33.785Z,99.99
2017-09-22T08:08:33.798Z,99.99
2017-09-22T08:09:33.774Z,99.99
2017-09-22T08:10:33.779Z,99.99
2017-09-22T08:11:33.756Z,99.99
2017-09-22T08:12:33.782Z,99.99
2017-09-22T08:13:33.740Z,99.99
2017-09-22T08:14:34.060Z,99.99
2017-09-22T08:15:33.727Z,99.99
2017-09-22T08:16:33.726Z,99.99
2017-09-22T08:17:34.041Z,99.99
2017-09-22T08:18:33.703Z,99.99
2017-09-22T08:19:34.021Z,99.99
2017-09-22T08:20:33.710Z,99.99
2017-09-22T08:21:34.013Z,99.99
2017-09-22T08:22:33.674Z,99.99
2017-09-22T08:23:33.669Z,99.99
2017-09-22T08:24:34.006Z,99.99
2017-09-22T08:25:33.654Z,99.99
2017-09-22T08:26:33.972Z,99.99
2017-09-22T08:27:33.652Z,99.99
2017-09-22T08:28:33.631Z,99.99
2017-09-22T08:29:33.967Z,99.99
2017-09-22T08:30:33.632Z,99.99
2017-09-22T08:31:33.935Z,99.99
2017-09-22T08:32:33.619Z,99.99
2017-09-22T08:33:33.591Z,99.99
2017-09-22T08:34:33.599Z,99.99
2017-09-22T08:35:33.579Z,99.99
2017-09-22T08:36:33.573Z,99.99
2017-09-22T08:37:33.913Z,99.99
2017-09-22T08:38:33.558Z,99.99
2017-09-22T08:39:33.556Z,99.99
2017-09-22T08:40:33.548Z,99.99
2017-09-22T08:41:33.534Z,99.99
2017-09-22T08:42:33.534Z,99.99
2017-09-22T08:43:33.539Z,99.99
2017-09-22T08:44:33.515Z,99.99
2017-09-22T08:45:33.527Z,99.99
2017-09-22T08:46:33.824Z,99.99
2017-09-22T08:47:33.506Z,99.99
2017-09-22T08:48:33.807Z,99.99
2017-09-22T08:49:33.476Z,99.99
2017-09-22T08:50:33.490Z,99.99
2017-09-22T08:51:33.792Z,99.99
2017-09-22T08:52:33.454Z,99.99
2017-09-22T08:53:33.773Z,99.99
2017-09-22T08:54:33.437Z,99.99
2017-09-22T08:55:33.434Z,99.99
2017-09-22T08:56:33.443Z,99.99
2017-09-22T08:57:33.427Z,99.99
2017-09-22T08:58:33.425Z,99.99
2017-09-22T08:59:33.407Z,99.99
2017-09-22T09:00:33.394Z,99.99
2017-09-22T09:01:33.387Z,99.99
2017-09-22T09:02:33.706Z,99.99
2017-09-22T09:03:33.371Z,99.99
2017-09-22T09:04:33.363Z,99.99
2017-09-22T09:05:33.376Z,99.99
2017-09-22T09:06:33.689Z,99.99
2017-09-22T09:07:33.346Z,99.99
2017-09-22T09:08:33.663Z,99.99
2017-09-22T09:09:33.326Z,99.99
2017-09-22T09:10:33.648Z,99.99
2017-09-22T09:11:33.315Z,99.99
2017-09-22T09:12:33.304Z,99.99
2017-09-22T09:13:33.643Z,99.99
2017-09-22T09:14:33.291Z,99.99
2017-09-22T09:15:33.611Z,99.99
2017-09-22T09:16:33.277Z,99.99
2017-09-22T09:17:33.597Z,99.99
2017-09-22T09:18:33.261Z,99.99
2017-09-22T09:19:33.251Z,99.99
2017-09-22T09:20:33.577Z,99.99
2017-09-22T09:21:33.236Z,99.99
2017-09-22T09:22:33.233Z,99.99
2017-09-22T09:23:33.224Z,99.99
2017-09-22T09:24:33.230Z,99.99
2017-09-22T09:25:33.533Z,99.99
2017-09-22T09:26:33.202Z,99.99
2017-09-22T09:27:33.518Z,99.99
2017-09-22T09:28:33.184Z,99.99
2017-09-22T09:29:33.522Z,99.99
2017-09-22T09:30:33.168Z,99.99
2017-09-22T09:31:33.161Z,99.99
2017-09-22T09:32:33.505Z,99.99
2017-09-22T09:33:33.147Z,99.99
2017-09-22T09:34:33.142Z,99.99
2017-09-22T09:35:33.131Z,99.99
2017-09-22T09:36:33.449Z,99.99
2017-09-22T09:37:33.119Z,99.99
2017-09-22T09:38:33.437Z,99.99
2017-09-22T09:39:33.103Z,99.99
2017-09-22T09:40:33.093Z,99.99
2017-09-22T09:41:33.415Z,99.99
2017-09-22T09:42:33.077Z,99.99
2017-09-22T09:43:33.402Z,99.99
2017-09-22T09:44:33.410Z,99.99
2017-09-22T09:45:33.057Z,99.99
2017-09-22T09:46:33.390Z,99.99
2017-09-22T09:47:33.049Z,99.99
2017-09-22T09:48:33.036Z,99.99
2017-09-22T09:49:33.028Z,99.99
2017-09-22T09:50:33.021Z,99.99
2017-09-22T09:51:33.339Z,99.99
2017-09-22T09:52:33.331Z,99.99
2017-09-22T09:53:33.327Z,99.99
2017-09-22T09:54:32.992Z,99.99
2017-09-22T09:55:32.984Z,99.99
2017-09-22T09:56:33.319Z,99.99
2017-09-22T09:57:32.971Z,99.99
2017-09-22T09:58:32.965Z,99.99
2017-09-22T09:59:32.975Z,99.99
2017-09-22T10:00:32.949Z,99.99
2017-09-22T10:01:32.944Z,99.99
2017-09-22T10:02:32.935Z,99.99
2017-09-22T10:03:32.930Z,99.99
2017-09-22T10:04:32.920Z,99.99
2017-09-22T10:05:32.915Z,99.99
2017-09-22T10:06:33.237Z,99.99
2017-09-22T10:07:33.230Z,99.99
2017-09-22T10:08:33.047Z,99.99
2017-09-22T10:09:32.885Z,99.99
2017-09-22T10:10:32.881Z,99.99
2017-09-22T10:11:33.201Z,99.99
2017-09-22T10:12:33.195Z,99.99
2017-09-22T10:13:32.861Z,99.99
2017-09-22T10:14:32.857Z,99.99
2017-09-22T10:15:32.891Z,99.99
2017-09-22T10:16:33.169Z,99.99
2017-09-22T10:17:32.834Z,99.99
2017-09-22T10:18:33.160Z,99.99
2017-09-22T10:19:32.821Z,99.99
2017-09-22T10:20:33.143Z,99.99
2017-09-22T10:21:32.809Z,99.99
2017-09-22T10:22:32.817Z,99.99
2017-09-22T10:23:33.131Z,99.99
2017-09-22T10:24:33.118Z,99.99
2017-09-22T10:25:33.132Z,99.99
2017-09-22T10:26:32.807Z,99.99
2017-09-22T10:27:32.792Z,99.99
2017-09-22T10:28:32.765Z,99.99
2017-09-22T10:29:32.759Z,99.99
2017-09-22T10:30:33.080Z,99.99
2017-09-22T10:31:32.770Z,99.99
2017-09-22T10:32:32.745Z,99.99
2017-09-22T10:33:32.735Z,99.99
2017-09-22T10:34:32.732Z,99.99
2017-09-22T10:35:33.052Z,99.99
2017-09-22T10:36:32.722Z,99.99
2017-09-22T10:37:33.038Z,99.99
2017-09-22T10:38:32.718Z,99.99
2017-09-22T10:39:33.057Z,99.99
2017-09-22T10:40:33.021Z,99.99
2017-09-22T10:41:33.021Z,99.99
2017-09-22T10:42:32.692Z,99.99
2017-09-22T10:43:33.002Z,99.99
2017-09-22T10:44:32.675Z,99.99
2017-09-22T10:45:32.668Z,99.99
2017-09-22T10:46:32.672Z,99.99
2017-09-22T10:47:32.657Z,99.99
2017-09-22T10:48:32.652Z,99.99
2017-09-22T10:49:32.694Z,99.99
2017-09-22T10:50:32.638Z,99.99
2017-09-22T10:51:32.643Z,96.66
2017-09-22T10:52:32.632Z,95.03
2017-09-22T10:53:32.626Z,93.12
2017-09-22T10:54:32.621Z,93.12
2017-09-22T10:55:32.616Z,92.63
2017-09-22T10:56:32.612Z,93.5
2017-09-22T10:57:32.940Z,94.07
2017-09-22T10:58:32.625Z,93.3
2017-09-22T10:59:32.597Z,92.73
2017-09-22T11:00:32.593Z,93.4
2017-09-22T11:01:32.588Z,91.53
2017-09-22T11:02:32.584Z,90.96
2017-09-22T11:03:32.914Z,87.99
2017-09-22T11:04:32.902Z,86.27
2017-09-22T11:05:32.570Z,86.84
2017-09-22T11:06:32.567Z,87.03
2017-09-22T11:07:32.560Z,87.03
2017-09-22T11:08:32.554Z,86.74
2017-09-22T11:09:32.879Z,89.81
2017-09-22T11:10:32.893Z,90.29
2017-09-22T11:11:32.543Z,88.47
2017-09-22T11:12:32.563Z,87.32
2017-09-22T11:13:32.872Z,86.27
2017-09-22T11:14:32.550Z,85.74
2017-09-22T11:15:32.528Z,84.49
2017-09-22T11:16:32.530Z,83.53
2017-09-22T11:17:32.521Z,83.92
2017-09-22T11:18:32.513Z,81.33
2017-09-22T11:19:32.548Z,80.08
2017-09-22T11:20:32.508Z,79.37
2017-09-22T11:21:32.503Z,79.08
2017-09-22T11:22:32.510Z,79.28
2017-09-22T11:23:32.498Z,80.04
2017-09-22T11:24:32.490Z,82.15
2017-09-22T11:25:32.485Z,83.87
2017-09-22T11:26:32.483Z,84.35
2017-09-22T11:27:32.476Z,84.92
2017-09-22T11:28:32.499Z,83.97
2017-09-22T11:29:32.486Z,83.97
2017-09-22T11:30:32.793Z,83.39
2017-09-22T11:31:32.464Z,82.34
2017-09-22T11:32:32.801Z,81.67
2017-09-22T11:33:32.807Z,80.14
2017-09-22T11:34:32.450Z,80.04
2017-09-22T11:35:32.447Z,80.14
2017-09-22T11:36:32.441Z,81.86
2017-09-22T11:37:32.439Z,82.43
2017-09-22T11:38:32.432Z,81.57
2017-09-22T11:39:32.429Z,80.33
2017-09-22T11:40:32.769Z,78.7
2017-09-22T11:41:32.772Z,79.28
2017-09-22T11:42:32.417Z,80.14
2017-09-22T11:43:32.410Z,78.7
2017-09-22T11:44:32.426Z,78.42
2017-09-22T11:45:32.729Z,82.06
2017-09-22T11:46:32.739Z,82.63
2017-09-22T11:47:32.725Z,79.85
2017-09-22T11:48:32.738Z,78.61
2017-09-22T11:49:32.385Z,78.22
2017-09-22T11:50:32.379Z,78.7
2017-09-22T11:51:32.711Z,80.9
2017-09-22T11:52:32.699Z,82.63
2017-09-22T11:53:32.379Z,83.2
2017-09-22T11:54:32.693Z,80.52
2017-09-22T11:55:32.694Z,76.98
2017-09-22T11:56:32.375Z,75.64
2017-09-22T11:57:32.369Z,75.93
2017-09-22T11:58:32.349Z,76.12
2017-09-22T11:59:32.358Z,75.93
2017-09-22T12:00:32.345Z,75.73
2017-09-22T12:01:32.663Z,76.5
2017-09-22T12:02:32.333Z,77.46
2017-09-22T12:03:32.330Z,76.31
2017-09-22T12:04:32.342Z,76.89
2017-09-22T12:05:32.321Z,76.02
2017-09-22T12:06:32.316Z,76.02
2017-09-22T12:07:32.309Z,75.45
2017-09-22T12:08:32.321Z,76.69
2017-09-22T12:09:32.628Z,78.42
2017-09-22T12:10:32.642Z,80.43
2017-09-22T12:11:32.310Z,81.2
2017-09-22T12:12:32.317Z,80.43
2017-09-22T12:13:32.284Z,78.8
2017-09-22T12:14:32.279Z,77.36
2017-09-22T12:15:32.277Z,75.93
2017-09-22T12:16:32.280Z,74.87
2017-09-22T12:17:32.603Z,74.4
2017-09-22T12:18:32.608Z,75.16
2017-09-22T12:19:32.593Z,74.97
2017-09-22T12:20:32.258Z,74.15
2017-09-22T12:21:32.255Z,74.43
2017-09-22T12:22:32.252Z,74.72
2017-09-22T12:23:32.248Z,75.01
2017-09-22T12:24:32.245Z,75.68
2017-09-22T12:25:32.238Z,76.25
2017-09-22T12:26:32.233Z,73.76
2017-09-22T12:27:32.559Z,72.71
2017-09-22T12:28:32.563Z,72.52
2017-09-22T12:29:32.222Z,72.03
2017-09-22T12:30:32.217Z,72.32
2017-09-22T12:31:32.215Z,72.9
2017-09-22T12:32:32.542Z,74.15
2017-09-22T12:33:32.536Z,73.66
2017-09-22T12:34:32.205Z,73.34
2017-09-22T12:35:32.198Z,72.96
2017-09-22T12:36:32.197Z,72.77
2017-09-22T12:37:32.191Z,73.82
2017-09-22T12:38:32.187Z,75.45
2017-09-22T12:39:32.204Z,76.89
2017-09-22T12:40:32.179Z,77.65
2017-09-22T12:41:32.502Z,77.84
2017-09-22T12:42:32.497Z,76.98
2017-09-22T12:43:32.177Z,76.6
2017-09-22T12:44:32.163Z,76.5
2017-09-22T12:45:32.168Z,77.94
2017-09-22T12:46:32.155Z,75.54
2017-09-22T12:47:32.483Z,74.49
2017-09-22T12:48:32.476Z,74.01
2017-09-22T12:49:32.145Z,74.49
2017-09-22T12:50:32.469Z,75.73
2017-09-22T12:51:32.138Z,75.54
2017-09-22T12:52:32.156Z,75.45
2017-09-22T12:53:32.127Z,76.12